Time;durP1;ratioP1;P1;durP2;ratioP2;P2;SDS_P1;SDS_P2;PMS_P1;PMS_P2;Temp;Humidity;BMP_temperature;BMP_pressure;BME280_temperature;BME280_humidity;BME280_pressure;Samples;Min_cycle;Max_cycle;Signal;HPM_P1;HPM_P2
2024/04/21 00:01:25;;;;;;;2.43;1.30;;;;;;;-0.01;50.20;102345.84;5443095;26;20856;-76
2024/04/21 00:03:51;;;;;;;2.70;1.40;;;;;;;0.00;50.66;102353.63;5446288;26;20291;-76
2024/04/21 00:06:20;;;;;;;1.50;0.97;;;;;;;-0.01;50.37;102349.28;5438473;26;21120;-76
2024/04/21 00:08:48;;;;;;;3.30;1.20;;;;;;;-0.01;50.39;102348.41;5437589;26;20286;-76
2024/04/21 00:11:17;;;;;;;5.10;1.20;;;;;;;-0.02;50.59;102344.97;5440818;26;20513;-74
2024/04/21 00:13:43;;;;;;;2.30;1.10;;;;;;;-0.03;50.45;102350.94;5430179;26;20522;-65
2024/04/21 00:16:11;;;;;;;3.10;1.20;;;;;;;-0.03;50.65;102355.16;5435659;26;20471;-65
2024/04/21 00:18:37;;;;;;;1.07;0.97;;;;;;;-0.02;51.00;102356.94;5430997;26;20354;-65
2024/04/21 00:21:06;;;;;;;1.17;0.97;;;;;;;-0.04;51.01;102366.28;5436727;26;20454;-65
2024/04/21 00:23:36;;;;;;;1.73;1.00;;;;;;;-0.06;51.00;102361.09;5438144;26;20581;-65
2024/04/21 00:26:08;;;;;;;2.60;1.23;;;;;;;-0.05;51.15;102367.09;5439257;26;20475;-65
2024/04/21 00:28:33;;;;;;;1.60;1.30;;;;;;;-0.07;51.06;102369.59;5434017;26;20536;-65
2024/04/21 00:31:02;;;;;;;3.93;1.27;;;;;;;-0.07;51.28;102369.59;5435471;26;20569;-65
2024/04/21 00:33:28;;;;;;;1.27;1.17;;;;;;;-0.08;51.01;102372.09;5426693;26;20283;-65
2024/04/21 00:35:57;;;;;;;2.20;1.00;;;;;;;-0.09;51.34;102373.78;5437350;26;20898;-65
2024/04/21 00:38:23;;;;;;;1.07;0.80;;;;;;;-0.10;51.27;102378.03;5424766;26;20343;-65
2024/04/21 00:40:51;;;;;;;1.47;1.03;;;;;;;-0.12;51.40;102373.63;5432395;26;20470;-65
2024/04/21 00:43:20;;;;;;;1.67;1.00;;;;;;;-0.12;51.29;102386.50;5443102;26;20323;-65
2024/04/21 00:45:49;;;;;;;1.40;1.27;;;;;;;-0.13;51.52;102383.03;5435128;26;20521;-64
2024/04/21 00:48:16;;;;;;;3.30;1.13;;;;;;;-0.14;51.50;102389.00;5442378;26;20469;-65
2024/04/21 00:50:49;;;;;;;1.23;1.10;;;;;;;-0.15;51.58;102384.69;5443139;26;20466;-65
2024/04/21 00:53:17;;;;;;;2.83;1.47;;;;;;;-0.15;51.67;102391.50;5427562;26;20605;-65
2024/04/21 00:55:45;;;;;;;1.60;1.20;;;;;;;-0.16;51.44;102397.47;5440652;26;20461;-65
2024/04/21 00:58:14;;;;;;;1.73;1.10;;;;;;;-0.18;51.60;102399.06;5440849;26;20610;-65
2024/04/21 01:00:47;;;;;;;1.93;1.17;;;;;;;-0.18;51.64;102397.38;5433776;26;20461;-65
2024/04/21 01:03:13;;;;;;;2.93;1.20;;;;;;;-0.19;51.62;102403.34;5431026;26;20572;-65
2024/04/21 01:05:41;;;;;;;3.87;1.13;;;;;;;-0.22;51.59;102389.47;5437639;26;20898;-65
2024/04/21 01:08:08;;;;;;;2.07;1.03;;;;;;;-0.21;51.73;102401.50;5435989;26;20277;-65
2024/04/21 01:10:36;;;;;;;1.63;1.00;;;;;;;-0.23;51.87;102397.97;5435752;26;20491;-65
2024/04/21 01:13:09;;;;;;;2.13;1.20;;;;;;;-0.33;52.00;102394.97;5444158;26;20601;-65
2024/04/21 01:15:37;;;;;;;3.00;1.23;;;;;;;-0.24;51.80;102406.50;5426221;26;20573;-65
2024/04/21 01:18:07;;;;;;;1.80;1.40;;;;;;;-0.25;51.90;102413.34;5441381;26;20672;-65
2024/04/21 01:20:37;;;;;;;2.40;1.30;;;;;;;-0.24;51.84;102409.06;5428637;26;20454;-65
2024/04/21 01:23:05;;;;;;;1.97;1.10;;;;;;;-0.26;52.08;102413.25;5437914;26;21250;-72
2024/04/21 01:25:34;;;;;;;1.57;1.27;;;;;;;-0.30;52.32;102408.78;5440727;26;20465;-73
2024/04/21 01:28:00;;;;;;;1.23;1.00;;;;;;;-0.28;52.18;102415.78;5439912;26;20462;-72
2024/04/21 01:30:29;;;;;;;1.27;1.17;;;;;;;-0.26;52.35;102423.53;5436658;26;20922;-72
2024/04/21 01:32:55;;;;;;;1.20;1.10;;;;;;;-0.27;52.13;102427.81;5444435;26;20240;-72
2024/04/21 01:35:23;;;;;;;2.07;1.10;;;;;;;-0.28;52.24;102420.91;5431055;26;20459;-73
2024/04/21 01:37:49;;;;;;;3.17;1.50;;;;;;;-0.30;52.40;102416.50;5438891;26;20611;-72
2024/04/21 01:40:21;;;;;;;2.30;1.03;;;;;;;-0.29;52.62;102419.13;5437381;26;20473;-72
2024/04/21 01:42:47;;;;;;;2.23;0.90;;;;;;;-0.30;52.51;102417.38;5431894;26;20284;-73
2024/04/21 01:45:15;;;;;;;2.43;1.00;;;;;;;-0.29;52.46;102425.97;5434713;26;20455;-73
2024/04/21 01:47:41;;;;;;;1.20;0.87;;;;;;;-0.35;52.60;102414.59;5440448;26;20361;-72
2024/04/21 01:50:10;;;;;;;2.70;1.20;;;;;;;-0.31;52.67;102423.34;5437149;26;20881;-72
2024/04/21 01:52:36;;;;;;;4.20;1.50;;;;;;;-0.31;52.63;102427.63;5436771;26;20287;-72
2024/04/21 01:55:06;;;;;;;1.03;0.97;;;;;;;-0.33;52.73;102433.53;5438413;26;20459;-72
2024/04/21 01:57:36;;;;;;;2.10;1.23;;;;;;;-0.34;52.60;102431.78;5436530;26;20470;-72
2024/04/21 02:00:04;;;;;;;2.63;1.20;;;;;;;-0.40;52.75;102426.34;5436366;26;21074;-72
2024/04/21 02:02:31;;;;;;;2.13;1.20;;;;;;;-0.39;52.86;102435.81;5424241;26;20515;-72
2024/04/21 02:05:00;;;;;;;1.23;1.10;;;;;;;-0.36;53.07;102432.53;5438484;26;21054;-73
2024/04/21 02:07:26;;;;;;;1.37;1.03;;;;;;;-0.37;52.93;102435.91;5438570;26;20455;-72
2024/04/21 02:09:54;;;;;;;3.53;1.10;;;;;;;-0.42;52.85;102430.53;5444209;26;20472;-72
2024/04/21 02:12:20;;;;;;;2.07;1.30;;;;;;;-0.38;52.77;102439.25;5432055;26;20791;-72
2024/04/21 02:14:51;;;;;;;3.03;1.30;;;;;;;-0.40;52.81;102446.94;5443030;26;20571;-72
2024/04/21 02:17:17;;;;;;;1.07;0.97;;;;;;;-0.41;53.12;102455.44;5431963;26;20295;-73
2024/04/21 02:19:46;;;;;;;1.30;1.00;;;;;;;-0.42;53.55;102452.78;5442404;26;20583;-73
2024/04/21 02:22:12;;;;;;;0.83;0.83;;;;;;;-0.46;53.02;102451.78;5427960;26;20280;-72
2024/04/21 02:24:42;;;;;;;1.63;1.27;;;;;;;-0.48;53.08;102457.63;5441918;26;20811;-72
2024/04/21 02:27:08;;;;;;;2.30;1.17;;;;;;;-0.45;53.23;102470.66;5439780;26;20327;-72
2024/04/21 02:29:36;;;;;;;1.83;1.20;;;;;;;-0.45;53.03;102468.94;5436181;26;20461;-72
2024/04/21 02:32:06;;;;;;;2.40;1.37;;;;;;;-0.46;53.35;102474.00;5433836;26;20542;-76
2024/04/21 02:34:34;;;;;;;4.27;1.20;;;;;;;-0.47;53.13;102477.41;5444029;26;20551;-75
2024/04/21 02:37:00;;;;;;;2.20;1.10;;;;;;;-0.50;53.53;102472.97;5444331;26;20469;-75
2024/04/21 02:39:29;;;;;;;1.57;1.07;;;;;;;-0.51;53.34;102471.22;5433882;26;20916;-76
2024/04/21 02:41:55;;;;;;;1.57;1.20;;;;;;;-0.52;53.54;102472.00;5438506;26;20624;-76
2024/04/21 02:44:23;;;;;;;1.33;1.00;;;;;;;-0.53;53.42;102472.81;5421851;26;20592;-76
2024/04/21 02:46:49;;;;;;;2.93;1.70;;;;;;;-0.54;53.58;102478.78;5438402;26;20304;-76
2024/04/21 02:49:21;;;;;;;1.80;1.00;;;;;;;-0.54;53.77;102483.94;5435560;26;20469;-76
2024/04/21 02:51:47;;;;;;;1.47;1.10;;;;;;;-0.56;53.61;102485.53;5436835;26;20228;-76
2024/04/21 02:54:16;;;;;;;1.23;1.07;;;;;;;-0.56;53.66;102482.97;5434549;26;20542;-76
2024/04/21 02:56:41;;;;;;;4.43;1.20;;;;;;;-0.58;53.94;102479.41;5441146;26;20301;-76
2024/04/21 02:59:10;;;;;;;1.40;0.90;;;;;;;-0.74;54.03;102451.16;5432820;26;20557;-76
2024/04/21 03:01:36;;;;;;;2.63;1.33;;;;;;;-0.62;53.92;102485.22;5438457;26;20340;-68
2024/04/21 03:04:05;;;;;;;0.80;0.80;;;;;;;-0.60;53.79;102488.78;5434314;26;20522;-67
2024/04/21 03:06:34;;;;;;;1.20;0.77;;;;;;;-0.70;53.84;102474.53;5440653;26;20357;-67
2024/04/21 03:09:03;;;;;;;1.30;1.17;;;;;;;-0.60;54.20;102493.91;5442347;26;20476;-65
2024/04/21 03:11:29;;;;;;;1.57;1.00;;;;;;;-0.61;53.67;102492.13;5432513;26;20577;-67
2024/04/21 03:13:58;;;;;;;1.33;0.70;;;;;;;-0.60;54.08;102493.91;5437422;26;20470;-67
2024/04/21 03:16:24;;;;;;;2.37;1.43;;;;;;;-0.61;53.92;102504.97;5441747;26;20596;-67
2024/04/21 03:18:52;;;;;;;3.07;1.47;;;;;;;-0.61;54.13;102507.53;5436933;26;20867;-67
2024/04/21 03:21:18;;;;;;;1.10;1.00;;;;;;;-0.62;54.18;102508.38;5435811;26;20248;-67
2024/04/21 03:23:51;;;;;;;1.13;1.03;;;;;;;-0.62;53.99;102516.06;5441261;26;20577;-67
2024/04/21 03:26:17;;;;;;;3.67;1.47;;;;;;;-0.62;54.40;102516.06;5427184;26;20575;-67
2024/04/21 03:28:46;;;;;;;1.13;1.00;;;;;;;-0.63;54.40;102519.44;5437461;26;20513;-67
2024/04/21 03:31:12;;;;;;;2.37;1.27;;;;;;;-0.65;54.14;102527.09;5436745;26;20465;-67
2024/04/21 03:33:41;;;;;;;2.33;0.87;;;;;;;-0.74;54.00;102510.28;5436722;26;20546;-67
2024/04/21 03:36:08;;;;;;;1.23;1.07;;;;;;;-0.67;54.34;102530.38;5437067;26;20228;-67
2024/04/21 03:38:38;;;;;;;1.60;1.30;;;;;;;-0.65;54.23;102536.47;5437258;26;20523;-67
2024/04/21 03:41:09;;;;;;;2.27;1.20;;;;;;;-0.66;54.53;102542.41;5424783;26;20462;-67
2024/04/21 03:43:38;;;;;;;1.03;0.70;;;;;;;-0.68;54.55;102541.47;5444762;26;20504;-75
2024/04/21 03:46:07;;;;;;;3.23;1.30;;;;;;;-0.69;54.69;102531.97;5429965;26;20467;-76
2024/04/21 03:48:33;;;;;;;2.57;1.17;;;;;;;-0.68;54.64;102537.22;5436172;26;21148;-75
2024/04/21 03:51:01;;;;;;;1.87;1.37;;;;;;;-0.68;54.69;102547.50;5441060;26;20466;-76
2024/04/21 03:53:27;;;;;;;2.50;1.30;;;;;;;-0.68;54.46;102544.91;5432869;26;20268;-76
2024/04/21 03:55:57;;;;;;;1.40;1.00;;;;;;;-0.66;54.65;102555.25;5434320;26;21037;-76
2024/04/21 03:58:25;;;;;;;1.67;1.30;;;;;;;-0.67;55.05;102559.53;5443157;26;20537;-76
2024/04/21 04:00:54;;;;;;;2.73;1.43;;;;;;;-0.67;54.77;102564.66;5441919;26;20473;-76
2024/04/21 04:03:20;;;;;;;1.30;1.13;;;;;;;-0.66;54.72;102560.41;5437961;26;20514;-76
2024/04/21 04:05:49;;;;;;;3.07;1.20;;;;;;;-0.65;54.78;102567.34;5439053;26;20579;-76
2024/04/21 04:08:15;;;;;;;3.17;1.00;;;;;;;-0.65;54.84;102562.19;5425183;26;20335;-76
2024/04/21 04:10:45;;;;;;;2.23;1.20;;;;;;;-0.63;54.64;102571.75;5440850;26;20579;-76
2024/04/21 04:13:11;;;;;;;1.50;1.27;;;;;;;-0.63;54.54;102566.63;5433381;26;20593;-65
2024/04/21 04:15:43;;;;;;;2.00;1.30;;;;;;;-0.65;54.98;102578.50;5435289;26;20469;-65
2024/04/21 04:18:09;;;;;;;1.33;1.23;;;;;;;-0.62;54.81;102582.91;5439511;26;20532;-66
2024/04/21 04:20:37;;;;;;;1.77;1.20;;;;;;;-0.72;54.79;102563.53;5436122;26;20567;-65
2024/04/21 04:23:06;;;;;;;1.90;1.00;;;;;;;-0.61;54.66;102592.38;5428775;26;20224;-65
2024/04/21 04:25:32;;;;;;;1.50;1.30;;;;;;;-0.61;54.76;102589.81;5439326;26;20525;-66
2024/04/21 04:28:01;;;;;;;1.73;1.13;;;;;;;-0.60;54.76;102587.34;5439769;26;20566;-65
2024/04/21 04:30:27;;;;;;;1.43;1.30;;;;;;;-0.57;54.92;102578.91;5437625;26;20229;-65
2024/04/21 04:32:58;;;;;;;1.60;1.40;;;;;;;-0.55;54.96;102600.41;5437720;26;20478;-65
2024/04/21 04:35:24;;;;;;;1.10;1.00;;;;;;;-0.56;55.05;102593.50;5439831;26;20277;-65
2024/04/21 04:37:52;;;;;;;1.70;1.30;;;;;;;-0.55;54.77;102601.28;5435855;26;22634;-66
2024/04/21 04:40:18;;;;;;;1.60;1.20;;;;;;;-0.53;55.08;102600.50;5440459;26;20778;-65
2024/04/21 04:42:48;;;;;;;2.57;1.37;;;;;;;-0.52;55.00;102603.13;5429337;26;20579;-66
2024/04/21 04:45:15;;;;;;;1.80;1.50;;;;;;;-0.50;54.85;102601.53;5433417;26;20227;-65
2024/04/21 04:47:43;;;;;;;2.30;1.00;;;;;;;-0.48;55.15;102612.78;5441539;26;20515;-66
2024/04/21 04:50:13;;;;;;;1.83;1.40;;;;;;;-0.48;55.61;102607.66;5423963;26;20527;-66
2024/04/21 04:52:41;;;;;;;1.67;1.30;;;;;;;-0.47;55.06;102611.09;5439615;26;20509;-76
2024/04/21 04:55:07;;;;;;;1.57;1.40;;;;;;;-0.58;55.57;102605.38;5428115;26;20534;-74
2024/04/21 04:57:36;;;;;;;1.40;1.23;;;;;;;-0.52;55.50;102613.41;5440977;26;21049;-75
2024/04/21 05:00:02;;;;;;;1.87;1.53;;;;;;;-0.56;55.70;102614.97;5439503;26;20469;-76
2024/04/21 05:02:31;;;;;;;3.77;1.40;;;;;;;-0.52;55.48;102625.41;5440220;26;20989;-65
2024/04/21 05:04:57;;;;;;;1.13;1.13;;;;;;;-0.50;55.47;102634.09;5430960;26;20530;-66
2024/04/21 05:07:28;;;;;;;3.20;1.33;;;;;;;-0.47;55.64;102629.97;5437588;26;20936;-66
2024/04/21 05:09:54;;;;;;;2.73;1.30;;;;;;;-0.46;55.77;102630.84;5415134;26;20606;-66
2024/04/21 05:12:22;;;;;;;1.50;1.40;;;;;;;-0.41;55.57;102632.88;5429521;26;20466;-66
2024/04/21 05:14:48;;;;;;;1.13;1.03;;;;;;;-0.39;55.70;102638.97;5425400;26;20321;-66
2024/04/21 05:17:17;;;;;;;1.20;1.10;;;;;;;-0.37;55.73;102645.09;5425610;26;20453;-66
2024/04/21 05:19:43;;;;;;;3.10;1.70;;;;;;;-0.35;55.87;102658.94;5437662;26;20240;-66
2024/04/21 05:22:11;;;;;;;1.27;1.17;;;;;;;-0.34;55.50;102660.69;5433907;26;20461;-73
2024/04/21 05:24:40;;;;;;;4.40;1.40;;;;;;;-0.31;55.69;102662.53;5428203;26;20241;-73
2024/04/21 05:27:08;;;;;;;2.13;1.33;;;;;;;-0.29;55.49;102668.63;5437263;26;20512;-73
2024/04/21 05:29:34;;;;;;;1.00;1.00;;;;;;;-0.28;55.76;102667.84;5443698;26;20528;-73
2024/04/21 05:32:03;;;;;;;1.70;1.10;;;;;;;-0.28;55.30;102674.69;5426302;26;20467;-72
2024/04/21 05:34:29;;;;;;;1.57;1.27;;;;;;;-0.24;55.74;102681.72;5442361;26;20227;-73
2024/04/21 05:36:57;;;;;;;2.53;1.50;;;;;;;-0.22;55.92;102677.56;5339719;26;20547;-73
2024/04/21 05:39:25;;;;;;;3.23;1.27;;;;;;;-0.22;55.96;102678.44;5401216;26;20701;-73
2024/04/21 05:41:56;;;;;;;2.03;1.30;;;;;;;-0.18;56.07;102684.63;5407745;26;20516;-73
2024/04/21 05:44:22;;;;;;;1.53;1.17;;;;;;;-0.16;56.16;102690.75;5400317;26;20604;-73
2024/04/21 05:46:50;;;;;;;3.17;1.30;;;;;;;-0.14;56.11;102690.03;5401029;26;20994;-73
2024/04/21 05:49:19;;;;;;;2.23;1.27;;;;;;;-0.11;56.04;102686.72;5405394;26;20232;-73
2024/04/21 05:51:48;;;;;;;1.50;1.27;;;;;;;-0.09;56.16;102697.97;5391966;26;20520;-73
2024/04/21 05:54:14;;;;;;;1.77;1.37;;;;;;;-0.08;56.44;102688.56;5403628;26;20470;-73
2024/04/21 05:56:43;;;;;;;3.20;1.50;;;;;;;-0.10;56.56;102685.91;5395383;26;20568;-73
2024/04/21 05:59:12;;;;;;;1.50;1.30;;;;;;;-0.06;56.41;102695.56;5395151;26;20467;-73
2024/04/21 06:01:40;;;;;;;1.40;1.10;;;;;;;-0.04;56.44;102703.34;5406589;26;20455;-73
2024/04/21 06:04:06;;;;;;;3.87;1.20;;;;;;;-0.03;56.62;102706.03;5401044;26;20566;-73
2024/04/21 06:06:35;;;;;;;2.47;1.57;;;;;;;-0.02;56.83;102712.03;5399972;26;20468;-72
2024/04/21 06:09:00;;;;;;;3.83;1.50;;;;;;;-0.01;56.87;102718.94;5401565;26;20229;-73
2024/04/21 06:11:29;;;;;;;1.93;1.33;;;;;;;0.01;56.74;102723.38;5404701;26;20464;-73
2024/04/21 06:13:55;;;;;;;1.87;1.40;;;;;;;0.02;56.63;102711.38;5407406;26;20332;-73
2024/04/21 06:16:26;;;;;;;2.53;1.70;;;;;;;0.03;56.75;102710.59;5404629;26;22490;-73
2024/04/21 06:18:52;;;;;;;2.30;1.40;;;;;;;0.04;56.75;102717.50;5394674;26;20367;-73
2024/04/21 06:21:20;;;;;;;1.83;1.37;;;;;;;0.05;57.08;102720.16;5410399;26;20483;-72
2024/04/21 06:23:46;;;;;;;1.40;1.30;;;;;;;0.06;57.11;102715.91;5405919;26;20382;-73
2024/04/21 06:26:15;;;;;;;2.27;1.50;;;;;;;0.08;56.92;102725.47;5400900;26;20470;-73
2024/04/21 06:28:41;;;;;;;3.20;1.30;;;;;;;0.09;57.03;102737.53;5402788;26;20718;-73
2024/04/21 06:31:09;;;;;;;2.17;1.30;;;;;;;0.11;57.63;102740.16;5407183;26;20582;-73
2024/04/21 06:33:38;;;;;;;2.30;1.30;;;;;;;0.12;57.79;102737.69;5388979;26;20285;-73
2024/04/21 06:36:08;;;;;;;2.20;1.50;;;;;;;0.13;57.81;102746.28;5400059;26;20462;-73
2024/04/21 06:38:34;;;;;;;2.63;1.50;;;;;;;0.15;57.60;102744.69;5391358;26;20560;-73
2024/04/21 06:41:03;;;;;;;3.17;2.00;;;;;;;0.17;57.93;102750.81;5392122;26;20514;-73
2024/04/21 06:43:28;;;;;;;1.63;1.40;;;;;;;0.18;57.87;102736.25;5408965;26;20534;-73
2024/04/21 06:45:57;;;;;;;1.93;1.40;;;;;;;0.18;57.64;102738.81;5399872;26;21020;-73
2024/04/21 06:48:23;;;;;;;1.30;1.20;;;;;;;0.21;57.67;102747.56;5400296;26;20343;-72
2024/04/21 06:50:54;;;;;;;2.77;1.73;;;;;;;0.23;57.70;102745.09;5411902;26;21320;-72
2024/04/21 06:53:20;;;;;;;1.30;1.20;;;;;;;0.10;57.72;102722.97;5402536;26;20241;-73
2024/04/21 06:55:50;;;;;;;2.20;1.40;;;;;;;0.24;57.52;102746.84;5394780;26;20569;-72
2024/04/21 06:58:17;;;;;;;2.30;1.40;;;;;;;0.23;57.81;102753.69;5406023;26;20324;-72
2024/04/21 07:00:46;;;;;;;2.60;1.20;;;;;;;0.26;57.63;102755.53;5401643;26;20583;-73
2024/04/21 07:03:11;;;;;;;1.93;1.03;;;;;;;0.26;57.40;102763.25;5400015;26;20554;-74
2024/04/21 07:05:40;;;;;;;1.67;1.13;;;;;;;0.26;57.59;102761.56;5398724;26;20906;-73
2024/04/21 07:08:09;;;;;;;1.30;1.20;;;;;;;0.31;57.55;102762.69;5399611;26;20769;-73
2024/04/21 07:10:38;;;;;;;1.43;1.30;;;;;;;0.34;57.56;102767.13;5402722;26;20550;-73
2024/04/21 07:13:04;;;;;;;2.10;1.37;;;;;;;0.37;57.40;102766.38;5384621;26;20607;-73
2024/04/21 07:15:32;;;;;;;1.30;1.20;;;;;;;0.38;57.49;102766.47;5407533;26;20549;-73
2024/04/21 07:17:58;;;;;;;1.83;1.20;;;;;;;0.42;57.51;102777.78;5401315;26;20285;-73
2024/04/21 07:20:27;;;;;;;0.50;0.30;;;;;;;0.41;57.13;102781.19;5404166;26;20573;-74
2024/04/21 07:22:53;;;;;;;1.23;0.63;;;;;;;0.41;56.93;102792.38;5403391;26;20297;-66
2024/04/21 07:25:24;;;;;;;0.60;0.60;;;;;;;0.41;57.04;102799.22;5405103;26;20470;-66
2024/04/21 07:27:50;;;;;;;2.37;0.80;;;;;;;0.39;56.72;102803.38;5388244;26;20364;-66
2024/04/21 07:30:18;;;;;;;2.07;1.30;;;;;;;0.38;56.73;102797.34;5402455;26;20482;-66
2024/04/21 07:32:47;;;;;;;2.23;1.30;;;;;;;0.39;56.69;102796.53;5401846;26;20338;-66
2024/04/21 07:35:15;;;;;;;1.30;1.20;;;;;;;0.41;56.32;102797.50;5400488;26;20506;-66
2024/04/21 07:37:41;;;;;;;0.70;0.70;;;;;;;0.42;56.39;102801.84;5398998;26;20527;-66
2024/04/21 07:40:13;;;;;;;1.40;1.23;;;;;;;0.44;56.22;102807.97;5405360;26;20591;-66
2024/04/21 07:42:42;;;;;;;1.03;1.00;;;;;;;0.46;55.87;102816.66;5383381;26;20233;-66
2024/04/21 07:45:11;;;;;;;1.00;1.00;;;;;;;0.49;55.32;102823.66;5402174;26;20463;-66
2024/04/21 07:47:37;;;;;;;2.13;1.13;;;;;;;0.51;55.44;102829.78;5399330;26;20542;-66
2024/04/21 07:50:07;;;;;;;1.37;1.10;;;;;;;0.53;55.49;102834.19;5399755;26;20471;-66
2024/04/21 07:52:33;;;;;;;1.27;1.17;;;;;;;0.54;54.78;102841.13;5399699;26;20590;-66
2024/04/21 07:55:01;;;;;;;2.20;1.00;;;;;;;0.52;54.56;102840.16;5405556;26;20466;-66
2024/04/21 07:57:27;;;;;;;1.87;1.20;;;;;;;0.52;54.92;102845.31;5401505;26;20354;-65
2024/04/21 07:59:58;;;;;;;1.20;1.10;;;;;;;0.57;54.93;102840.41;5405890;26;20869;-66
2024/04/21 08:02:24;;;;;;;1.73;1.40;;;;;;;0.60;55.08;102839.69;5391635;26;20289;-66
2024/04/21 08:04:53;;;;;;;1.33;1.07;;;;;;;0.63;54.98;102843.28;5389809;26;20569;-66
2024/04/21 08:07:18;;;;;;;2.70;1.10;;;;;;;0.64;55.37;102837.31;5406209;26;20359;-66
2024/04/21 08:09:47;;;;;;;1.90;1.50;;;;;;;0.67;54.50;102839.16;5397810;26;21031;-65
2024/04/21 08:12:13;;;;;;;1.77;1.33;;;;;;;0.67;54.40;102858.09;5402208;26;20232;-66
2024/04/21 08:14:41;;;;;;;1.03;0.90;;;;;;;0.68;54.55;102848.66;5404792;26;20467;-66
2024/04/21 08:17:10;;;;;;;2.77;1.40;;;;;;;0.71;54.25;102846.28;5400918;26;20228;-66
2024/04/21 08:19:38;;;;;;;3.03;1.37;;;;;;;0.72;54.06;102843.75;5405731;26;20455;-66
2024/04/21 08:22:04;;;;;;;1.13;0.90;;;;;;;0.73;54.20;102866.13;5404710;26;20543;-65
2024/04/21 08:24:33;;;;;;;1.20;1.10;;;;;;;0.74;54.35;102859.31;5401191;26;20462;-66
2024/04/21 08:26:59;;;;;;;1.90;1.40;;;;;;;0.71;53.93;102847.16;5403199;26;20601;-65
2024/04/21 08:29:28;;;;;;;2.00;0.93;;;;;;;0.78;54.04;102874.09;5400069;26;20471;-65
2024/04/21 08:31:53;;;;;;;1.20;1.00;;;;;;;0.76;54.29;102873.13;5406677;26;20478;-73
2024/04/21 08:34:25;;;;;;;1.67;1.03;;;;;;;0.77;54.41;102890.38;5400778;26;20663;-73
2024/04/21 08:36:51;;;;;;;1.90;1.43;;;;;;;0.75;54.63;102887.72;5403317;26;20277;-73
2024/04/21 08:39:19;;;;;;;2.07;1.30;;;;;;;0.72;54.90;102887.56;5393774;26;20556;-73
2024/04/21 08:41:47;;;;;;;1.80;1.43;;;;;;;0.65;54.85;102876.84;5400210;26;20233;-71
2024/04/21 08:44:16;;;;;;;2.57;1.70;;;;;;;0.74;54.94;102895.38;5388537;26;20515;-73
2024/04/21 08:46:43;;;;;;;1.40;1.30;;;;;;;0.72;55.00;102891.81;5400811;26;20588;-72
2024/04/21 08:49:12;;;;;;;1.60;1.37;;;;;;;0.72;55.18;102887.56;5398497;26;20890;-73
2024/04/21 08:51:43;;;;;;;2.20;1.20;;;;;;;0.75;55.23;102891.97;5387520;26;20550;-69
2024/04/21 08:54:11;;;;;;;1.73;1.50;;;;;;;0.75;54.83;102899.72;5403428;26;20463;-67
2024/04/21 08:56:44;;;;;;;1.50;1.40;;;;;;;0.72;54.65;102895.28;5399046;26;20455;-70
2024/04/21 08:59:14;;;;;;;2.17;1.70;;;;;;;0.74;53.17;102892.81;5400302;26;20984;-69
2024/04/21 09:01:40;;;;;;;2.43;1.67;;;;;;;0.70;52.78;102893.44;5400147;26;20591;-69
2024/04/21 09:04:09;;;;;;;1.83;1.43;;;;;;;0.71;52.54;102900.38;5401868;26;20525;-70
2024/04/21 09:06:38;;;;;;;1.57;1.00;;;;;;;0.70;52.73;102907.19;5392692;26;20600;-68
2024/04/21 09:09:09;;;;;;;1.53;1.40;;;;;;;0.69;52.38;102908.00;5407190;26;20462;-69
2024/04/21 09:11:35;;;;;;;4.00;1.20;;;;;;;0.70;52.68;102920.06;5389688;26;20475;-69
2024/04/21 09:14:04;;;;;;;1.10;1.00;;;;;;;0.71;52.77;102921.00;5407132;26;20573;-69
2024/04/21 09:16:30;;;;;;;1.47;1.37;;;;;;;0.71;52.95;102915.84;5404929;26;20571;-69
2024/04/21 09:18:58;;;;;;;0.93;0.93;;;;;;;0.72;52.89;102923.63;5401702;26;20472;-69
2024/04/21 09:21:24;;;;;;;1.30;1.10;;;;;;;0.73;52.74;102927.09;5402400;26;20225;-69
2024/04/21 09:23:53;;;;;;;3.57;1.37;;;;;;;0.72;52.70;102925.31;5406055;26;20550;-69
2024/04/21 09:26:22;;;;;;;1.47;1.30;;;;;;;0.64;52.39;102914.59;5396639;26;20468;-69
2024/04/21 09:28:50;;;;;;;1.70;1.60;;;;;;;0.73;52.96;102924.50;5397671;26;20459;-74
2024/04/21 09:31:17;;;;;;;2.87;1.83;;;;;;;0.72;52.90;102915.91;5399644;26;20479;-70
2024/04/21 09:33:46;;;;;;;2.30;1.30;;;;;;;0.75;52.79;102917.75;5400474;26;20470;-70
2024/04/21 09:36:14;;;;;;;1.77;1.43;;;;;;;0.79;53.05;102922.25;5406836;26;20524;-70
2024/04/21 09:38:41;;;;;;;1.03;0.90;;;;;;;0.82;52.98;102918.94;5405800;26;20467;-70
2024/04/21 09:41:11;;;;;;;0.90;0.80;;;;;;;0.84;52.99;102912.19;5406993;26;20535;-69
2024/04/21 09:43:43;;;;;;;1.93;1.40;;;;;;;0.86;52.83;102910.59;5406600;26;20530;-66
2024/04/21 09:46:13;;;;;;;1.63;1.50;;;;;;;0.87;52.83;102920.06;5402487;26;20797;-66
2024/04/21 09:48:42;;;;;;;1.20;1.10;;;;;;;0.89;52.82;102921.94;5389423;26;20580;-66
2024/04/21 09:51:12;;;;;;;0.93;0.77;;;;;;;0.91;52.84;102925.47;5405687;26;20530;-66
2024/04/21 09:53:39;;;;;;;2.83;1.47;;;;;;;0.90;52.83;102922.81;5394252;26;20510;-66
2024/04/21 09:56:13;;;;;;;1.83;1.10;;;;;;;0.85;52.93;102916.53;5403774;26;20462;-67
2024/04/21 09:58:46;;;;;;;1.13;0.80;;;;;;;0.84;52.85;102918.22;5398540;26;20570;-69
2024/04/21 10:01:20;;;;;;;2.10;1.50;;;;;;;0.88;52.91;102920.16;5403237;26;20462;-68
2024/04/21 10:03:48;;;;;;;3.13;1.70;;;;;;;0.91;52.59;102920.31;5398066;26;20581;-74
2024/04/21 10:06:18;;;;;;;1.40;1.30;;;;;;;0.92;51.21;102922.06;5407745;26;20497;-74
2024/04/21 10:08:45;;;;;;;2.00;1.60;;;;;;;0.91;50.49;102932.31;5393538;26;20585;-74
2024/04/21 10:11:13;;;;;;;1.57;1.30;;;;;;;0.90;51.15;102931.41;5402345;26;20520;-74
2024/04/21 10:13:42;;;;;;;1.20;0.90;;;;;;;0.92;51.32;102931.50;5411244;26;20486;-74
2024/04/21 10:16:11;;;;;;;0.97;0.60;;;;;;;0.94;51.14;102937.63;5396261;26;20526;-74
2024/04/21 10:18:37;;;;;;;1.43;1.33;;;;;;;0.93;50.78;102923.84;5406984;26;20582;-74
2024/04/21 10:21:07;;;;;;;1.93;1.30;;;;;;;0.95;50.53;102935.13;5392686;26;20458;-73
2024/04/21 10:23:33;;;;;;;1.40;1.20;;;;;;;0.94;49.96;102927.31;5409002;26;20227;-74
2024/04/21 10:26:03;;;;;;;1.37;0.93;;;;;;;0.98;50.04;102927.53;5407441;26;20466;-74
2024/04/21 10:28:29;;;;;;;1.63;1.20;;;;;;;0.91;49.85;102920.31;5405989;26;20606;-74
2024/04/21 10:31:09;;;;;;;0.80;0.77;;;;;;;1.03;49.24;102932.94;5399416;26;20569;-75
2024/04/21 10:33:38;;;;;;;2.13;1.00;;;;;;;1.04;49.67;102939.88;5401047;26;20565;-74
2024/04/21 10:36:07;;;;;;;2.27;1.10;;;;;;;1.03;49.50;102940.69;5392661;26;20458;-73
2024/04/21 10:38:33;;;;;;;1.33;0.80;;;;;;;1.07;49.01;102939.13;5407739;26;20459;-73
2024/04/21 10:41:02;;;;;;;1.90;1.47;;;;;;;1.10;49.10;102936.72;5407279;26;20464;-73
2024/04/21 10:43:28;;;;;;;2.60;1.30;;;;;;;1.14;48.35;102936.09;5404177;26;20289;-73
2024/04/21 10:45:58;;;;;;;1.50;1.07;;;;;;;1.14;48.38;102933.50;5402552;26;21127;-73
2024/04/21 10:48:26;;;;;;;2.40;1.40;;;;;;;1.13;48.37;102934.28;5406953;26;21004;-73
2024/04/21 10:50:56;;;;;;;1.30;1.20;;;;;;;1.17;48.97;102929.38;5397754;26;20519;-74
2024/04/21 10:53:22;;;;;;;3.30;1.37;;;;;;;1.19;48.54;102932.94;5340635;26;20570;-75
2024/04/21 10:55:54;;;;;;;1.93;1.40;;;;;;;1.17;48.06;102928.50;5396423;26;20471;-75
2024/04/21 10:58:21;;;;;;;0.77;0.77;;;;;;;1.22;48.16;102937.31;5406838;26;20588;-76
2024/04/21 11:00:49;;;;;;;1.40;1.30;;;;;;;1.22;47.90;102937.31;5405704;26;20530;-74
2024/04/21 11:03:16;;;;;;;1.73;1.40;;;;;;;1.25;48.04;102937.50;5406582;26;20470;-75
2024/04/21 11:05:54;;;;;;;1.70;1.20;;;;;;;1.19;48.26;102922.63;5404921;26;20519;-75
2024/04/21 11:08:23;;;;;;;2.47;1.40;;;;;;;1.33;48.16;102931.00;5403188;26;20539;-75
2024/04/21 11:10:52;;;;;;;0.73;0.73;;;;;;;1.38;48.10;102933.84;5403697;26;20468;-75
2024/04/21 11:13:18;;;;;;;1.40;1.30;;;;;;;1.41;47.49;102942.59;5400063;26;20456;-67
2024/04/21 11:15:46;;;;;;;2.40;1.50;;;;;;;1.35;47.05;102928.53;5400350;26;20508;-67
2024/04/21 11:18:13;;;;;;;2.57;1.20;;;;;;;1.43;47.47;102938.41;5391036;26;20720;-67
2024/04/21 11:20:42;;;;;;;0.70;0.70;;;;;;;1.43;47.30;102950.44;5405077;26;20470;-67
2024/04/21 11:23:14;;;;;;;1.90;1.43;;;;;;;1.43;47.27;102933.25;5395465;26;21138;-67
2024/04/21 11:25:42;;;;;;;0.63;0.63;;;;;;;1.45;47.25;102931.63;5400681;26;20457;-67
2024/04/21 11:28:09;;;;;;;2.03;1.60;;;;;;;1.32;47.12;102923.22;5398944;26;20480;-67
2024/04/21 11:30:38;;;;;;;1.17;1.00;;;;;;;1.47;46.73;102945.47;5402483;26;20447;-67
2024/04/21 11:33:04;;;;;;;0.50;0.50;;;;;;;1.46;47.18;102946.31;5400101;26;20599;-67